sensor_id;sensor_type;location;lat;lon;timestamp;P1;durP1;ratioP1;P2;durP2;ratioP2
49678;SDS011;35570;48.218;16.326;2023-05-07T00:15:51;2.35;;;1.58;;
49678;SDS011;35570;48.218;16.326;2023-05-07T00:18:17;2.08;;;1.48;;
49678;SDS011;35570;48.218;16.326;2023-05-07T00:20:45;5.68;;;1.65;;
49678;SDS011;35570;48.218;16.326;2023-05-07T00:23:12;2.55;;;1.70;;
49678;SDS011;35570;48.218;16.326;2023-05-07T00:29:12;3.03;;;1.42;;
49678;SDS011;35570;48.218;16.326;2023-05-07T00:34:22;2.67;;;1.38;;
49678;SDS011;35570;48.218;16.326;2023-05-07T00:36:48;3.92;;;1.23;;
49678;SDS011;35570;48.218;16.326;2023-05-07T00:39:13;3.00;;;1.20;;
49678;SDS011;35570;48.218;16.326;2023-05-07T00:41:39;2.50;;;1.67;;
49678;SDS011;35570;48.218;16.326;2023-05-07T00:44:05;2.38;;;1.50;;
49678;SDS011;35570;48.218;16.326;2023-05-07T00:46:30;4.05;;;2.10;;
49678;SDS011;35570;48.218;16.326;2023-05-07T00:48:57;2.75;;;1.67;;
49678;SDS011;35570;48.218;16.326;2023-05-07T00:51:24;2.17;;;1.80;;
49678;SDS011;35570;48.218;16.326;2023-05-07T00:53:52;2.30;;;1.67;;
49678;SDS011;35570;48.218;16.326;2023-05-07T00:56:35;2.90;;;1.95;;
49678;SDS011;35570;48.218;16.326;2023-05-07T00:59:01;2.55;;;1.52;;
49678;SDS011;35570;48.218;16.326;2023-05-07T01:01:28;2.42;;;1.20;;
49678;SDS011;35570;48.218;16.326;2023-05-07T01:03:54;2.22;;;1.20;;
49678;SDS011;35570;48.218;16.326;2023-05-07T01:06:27;1.75;;;1.17;;
49678;SDS011;35570;48.218;16.326;2023-05-07T01:08:57;1.60;;;1.10;;
49678;SDS011;35570;48.218;16.326;2023-05-07T01:11:24;2.97;;;1.30;;
49678;SDS011;35570;48.218;16.326;2023-05-07T01:13:50;2.40;;;1.40;;
49678;SDS011;35570;48.218;16.326;2023-05-07T01:16:16;1.10;;;1.00;;
49678;SDS011;35570;48.218;16.326;2023-05-07T01:18:42;1.30;;;1.00;;
49678;SDS011;35570;48.218;16.326;2023-05-07T01:24:31;2.08;;;1.30;;
49678;SDS011;35570;48.218;16.326;2023-05-07T01:27:05;2.92;;;1.80;;
49678;SDS011;35570;48.218;16.326;2023-05-07T01:29:30;1.98;;;1.10;;
49678;SDS011;35570;48.218;16.326;2023-05-07T01:31:57;2.47;;;1.70;;
49678;SDS011;35570;48.218;16.326;2023-05-07T01:34:43;2.92;;;1.20;;
49678;SDS011;35570;48.218;16.326;2023-05-07T01:37:11;2.85;;;1.08;;
49678;SDS011;35570;48.218;16.326;2023-05-07T01:39:38;2.45;;;0.90;;
49678;SDS011;35570;48.218;16.326;2023-05-07T01:42:05;1.60;;;0.85;;
49678;SDS011;35570;48.218;16.326;2023-05-07T01:44:30;1.30;;;1.02;;
49678;SDS011;35570;48.218;16.326;2023-05-07T01:46:56;2.03;;;1.10;;
49678;SDS011;35570;48.218;16.326;2023-05-07T01:49:22;2.30;;;1.10;;
49678;SDS011;35570;48.218;16.326;2023-05-07T01:51:48;2.20;;;1.00;;
49678;SDS011;35570;48.218;16.326;2023-05-07T01:54:48;1.60;;;1.00;;
49678;SDS011;35570;48.218;16.326;2023-05-07T01:57:07;1.67;;;1.27;;
49678;SDS011;35570;48.218;16.326;2023-05-07T01:59:35;1.30;;;1.10;;
49678;SDS011;35570;48.218;16.326;2023-05-07T02:02:00;2.60;;;1.52;;
49678;SDS011;35570;48.218;16.326;2023-05-07T02:04:26;1.85;;;1.40;;
49678;SDS011;35570;48.218;16.326;2023-05-07T02:06:52;1.65;;;1.45;;
49678;SDS011;35570;48.218;16.326;2023-05-07T02:09:18;2.20;;;1.40;;
49678;SDS011;35570;48.218;16.326;2023-05-07T02:15:06;3.05;;;1.27;;
49678;SDS011;35570;48.218;16.326;2023-05-07T02:20:54;3.47;;;1.60;;
49678;SDS011;35570;48.218;16.326;2023-05-07T02:23:20;3.75;;;1.58;;
49678;SDS011;35570;48.218;16.326;2023-05-07T02:25:45;2.90;;;1.90;;
49678;SDS011;35570;48.218;16.326;2023-05-07T02:28:11;4.57;;;1.83;;
49678;SDS011;35570;48.218;16.326;2023-05-07T02:30:37;2.97;;;2.00;;
49678;SDS011;35570;48.218;16.326;2023-05-07T02:33:03;2.05;;;1.85;;
49678;SDS011;35570;48.218;16.326;2023-05-07T02:35:28;2.72;;;2.13;;
49678;SDS011;35570;48.218;16.326;2023-05-07T02:37:55;4.43;;;2.60;;
49678;SDS011;35570;48.218;16.326;2023-05-07T02:40:22;3.00;;;2.20;;
49678;SDS011;35570;48.218;16.326;2023-05-07T02:42:48;5.50;;;2.63;;
49678;SDS011;35570;48.218;16.326;2023-05-07T02:45:14;3.58;;;2.40;;
49678;SDS011;35570;48.218;16.326;2023-05-07T02:47:40;4.63;;;2.83;;
49678;SDS011;35570;48.218;16.326;2023-05-07T02:50:08;3.05;;;2.75;;
49678;SDS011;35570;48.218;16.326;2023-05-07T02:52:41;4.18;;;3.00;;
49678;SDS011;35570;48.218;16.326;2023-05-07T02:55:13;3.95;;;2.72;;
49678;SDS011;35570;48.218;16.326;2023-05-07T02:57:39;3.65;;;3.20;;
49678;SDS011;35570;48.218;16.326;2023-05-07T03:00:10;4.05;;;3.15;;
49678;SDS011;35570;48.218;16.326;2023-05-07T03:02:36;4.32;;;3.58;;
49678;SDS011;35570;48.218;16.326;2023-05-07T03:05:02;4.30;;;3.30;;
49678;SDS011;35570;48.218;16.326;2023-05-07T03:07:30;3.95;;;3.45;;
49678;SDS011;35570;48.218;16.326;2023-05-07T03:09:56;5.15;;;4.05;;
49678;SDS011;35570;48.218;16.326;2023-05-07T03:12:21;4.97;;;3.72;;
49678;SDS011;35570;48.218;16.326;2023-05-07T03:17:31;6.13;;;4.32;;
49678;SDS011;35570;48.218;16.326;2023-05-07T03:19:57;4.80;;;4.30;;
49678;SDS011;35570;48.218;16.326;2023-05-07T03:22:23;6.22;;;4.45;;
49678;SDS011;35570;48.218;16.326;2023-05-07T03:24:48;6.00;;;4.35;;
49678;SDS011;35570;48.218;16.326;2023-05-07T03:27:14;5.93;;;4.32;;
49678;SDS011;35570;48.218;16.326;2023-05-07T03:29:39;6.47;;;4.38;;
49678;SDS011;35570;48.218;16.326;2023-05-07T03:32:05;4.90;;;4.22;;
49678;SDS011;35570;48.218;16.326;2023-05-07T03:34:31;6.00;;;4.88;;
49678;SDS011;35570;48.218;16.326;2023-05-07T03:36:57;5.40;;;4.78;;
49678;SDS011;35570;48.218;16.326;2023-05-07T03:39:22;5.40;;;4.90;;
49678;SDS011;35570;48.218;16.326;2023-05-07T03:41:48;5.15;;;4.65;;
49678;SDS011;35570;48.218;16.326;2023-05-07T03:44:13;7.00;;;5.20;;
49678;SDS011;35570;48.218;16.326;2023-05-07T03:46:39;5.78;;;5.18;;
49678;SDS011;35570;48.218;16.326;2023-05-07T03:49:05;7.13;;;6.18;;
49678;SDS011;35570;48.218;16.326;2023-05-07T03:51:30;7.68;;;5.97;;
49678;SDS011;35570;48.218;16.326;2023-05-07T03:53:56;7.35;;;6.65;;
49678;SDS011;35570;48.218;16.326;2023-05-07T03:56:24;7.70;;;7.00;;
49678;SDS011;35570;48.218;16.326;2023-05-07T03:58:51;8.88;;;7.72;;
49678;SDS011;35570;48.218;16.326;2023-05-07T04:01:17;9.85;;;8.35;;
49678;SDS011;35570;48.218;16.326;2023-05-07T04:03:43;10.07;;;8.93;;
49678;SDS011;35570;48.218;16.326;2023-05-07T04:06:08;9.32;;;8.35;;
49678;SDS011;35570;48.218;16.326;2023-05-07T04:08:34;9.55;;;8.55;;
49678;SDS011;35570;48.218;16.326;2023-05-07T04:11:00;10.43;;;8.48;;
49678;SDS011;35570;48.218;16.326;2023-05-07T04:13:27;11.25;;;8.77;;
49678;SDS011;35570;48.218;16.326;2023-05-07T04:15:54;10.55;;;9.45;;
49678;SDS011;35570;48.218;16.326;2023-05-07T04:18:20;11.15;;;10.05;;
49678;SDS011;35570;48.218;16.326;2023-05-07T04:20:46;11.00;;;9.90;;
49678;SDS011;35570;48.218;16.326;2023-05-07T04:23:13;11.45;;;10.00;;
49678;SDS011;35570;48.218;16.326;2023-05-07T04:25:38;11.52;;;9.60;;
49678;SDS011;35570;48.218;16.326;2023-05-07T04:28:04;11.73;;;10.35;;
49678;SDS011;35570;48.218;16.326;2023-05-07T04:30:29;11.77;;;10.20;;
49678;SDS011;35570;48.218;16.326;2023-05-07T04:32:55;10.98;;;9.82;;
49678;SDS011;35570;48.218;16.326;2023-05-07T04:35:21;10.35;;;9.20;;
49678;SDS011;35570;48.218;16.326;2023-05-07T04:37:47;11.02;;;9.82;;
49678;SDS011;35570;48.218;16.326;2023-05-07T04:40:13;11.02;;;9.98;;
49678;SDS011;35570;48.218;16.326;2023-05-07T04:42:38;11.18;;;9.98;;
49678;SDS011;35570;48.218;16.326;2023-05-07T04:45:04;12.25;;;10.52;;
49678;SDS011;35570;48.218;16.326;2023-05-07T04:47:30;13.18;;;10.80;;
49678;SDS011;35570;48.218;16.326;2023-05-07T04:49:57;11.80;;;10.52;;
49678;SDS011;35570;48.218;16.326;2023-05-07T04:52:23;10.57;;;9.57;;
49678;SDS011;35570;48.218;16.326;2023-05-07T04:54:48;11.95;;;10.80;;
49678;SDS011;35570;48.218;16.326;2023-05-07T04:57:14;12.77;;;10.80;;
49678;SDS011;35570;48.218;16.326;2023-05-07T04:59:41;13.30;;;10.75;;
49678;SDS011;35570;48.218;16.326;2023-05-07T05:02:07;13.48;;;10.90;;
49678;SDS011;35570;48.218;16.326;2023-05-07T05:04:33;12.10;;;10.88;;
49678;SDS011;35570;48.218;16.326;2023-05-07T05:06:58;12.88;;;11.38;;
49678;SDS011;35570;48.218;16.326;2023-05-07T05:09:24;14.73;;;11.45;;
49678;SDS011;35570;48.218;16.326;2023-05-07T05:11:49;12.10;;;10.88;;
49678;SDS011;35570;48.218;16.326;2023-05-07T05:14:15;12.50;;;11.30;;
49678;SDS011;35570;48.218;16.326;2023-05-07T05:16:41;13.60;;;12.20;;
49678;SDS011;35570;48.218;16.326;2023-05-07T05:19:06;14.30;;;12.88;;
49678;SDS011;35570;48.218;16.326;2023-05-07T05:21:32;13.82;;;12.23;;
49678;SDS011;35570;48.218;16.326;2023-05-07T05:23:58;14.25;;;12.70;;
49678;SDS011;35570;48.218;16.326;2023-05-07T05:26:23;14.52;;;12.88;;
49678;SDS011;35570;48.218;16.326;2023-05-07T05:28:49;17.20;;;13.55;;
49678;SDS011;35570;48.218;16.326;2023-05-07T05:31:15;14.93;;;13.40;;
49678;SDS011;35570;48.218;16.326;2023-05-07T05:33:41;14.32;;;12.82;;
49678;SDS011;35570;48.218;16.326;2023-05-07T05:36:09;16.27;;;13.63;;
49678;SDS011;35570;48.218;16.326;2023-05-07T05:38:35;16.33;;;14.50;;
49678;SDS011;35570;48.218;16.326;2023-05-07T05:41:01;15.80;;;13.73;;
49678;SDS011;35570;48.218;16.326;2023-05-07T05:43:26;15.80;;;14.20;;
49678;SDS011;35570;48.218;16.326;2023-05-07T05:45:52;14.95;;;13.45;;
49678;SDS011;35570;48.218;16.326;2023-05-07T05:48:18;16.60;;;14.80;;
49678;SDS011;35570;48.218;16.326;2023-05-07T05:50:43;16.95;;;14.80;;
49678;SDS011;35570;48.218;16.326;2023-05-07T05:53:09;19.70;;;17.17;;
49678;SDS011;35570;48.218;16.326;2023-05-07T05:55:34;18.52;;;16.60;;
49678;SDS011;35570;48.218;16.326;2023-05-07T05:58:00;18.60;;;16.05;;
49678;SDS011;35570;48.218;16.326;2023-05-07T06:00:26;19.20;;;15.25;;
49678;SDS011;35570;48.218;16.326;2023-05-07T06:02:52;17.55;;;14.57;;
49678;SDS011;35570;48.218;16.326;2023-05-07T06:05:18;16.25;;;14.65;;
49678;SDS011;35570;48.218;16.326;2023-05-07T06:07:43;17.27;;;15.02;;
49678;SDS011;35570;48.218;16.326;2023-05-07T06:10:09;16.92;;;15.00;;
49678;SDS011;35570;48.218;16.326;2023-05-07T06:12:35;15.80;;;13.75;;
49678;SDS011;35570;48.218;16.326;2023-05-07T06:15:00;15.43;;;13.77;;
49678;SDS011;35570;48.218;16.326;2023-05-07T06:17:26;15.88;;;14.05;;
49678;SDS011;35570;48.218;16.326;2023-05-07T06:19:52;15.07;;;13.40;;
49678;SDS011;35570;48.218;16.326;2023-05-07T06:22:18;15.90;;;14.20;;
49678;SDS011;35570;48.218;16.326;2023-05-07T06:24:43;14.02;;;12.63;;
49678;SDS011;35570;48.218;16.326;2023-05-07T06:27:09;16.80;;;14.13;;
49678;SDS011;35570;48.218;16.326;2023-05-07T06:29:35;14.75;;;13.25;;
49678;SDS011;35570;48.218;16.326;2023-05-07T06:32:09;12.98;;;11.63;;
49678;SDS011;35570;48.218;16.326;2023-05-07T06:34:36;14.30;;;12.90;;
49678;SDS011;35570;48.218;16.326;2023-05-07T06:37:02;12.73;;;11.43;;
49678;SDS011;35570;48.218;16.326;2023-05-07T06:39:28;16.08;;;13.82;;
49678;SDS011;35570;48.218;16.326;2023-05-07T06:41:53;14.02;;;12.23;;
49678;SDS011;35570;48.218;16.326;2023-05-07T06:44:19;13.15;;;11.85;;
49678;SDS011;35570;48.218;16.326;2023-05-07T06:46:45;15.07;;;12.52;;
49678;SDS011;35570;48.218;16.326;2023-05-07T06:49:12;14.90;;;12.80;;
49678;SDS011;35570;48.218;16.326;2023-05-07T06:51:37;13.43;;;12.13;;
49678;SDS011;35570;48.218;16.326;2023-05-07T06:54:03;13.45;;;12.05;;
49678;SDS011;35570;48.218;16.326;2023-05-07T06:56:29;13.32;;;11.93;;
49678;SDS011;35570;48.218;16.326;2023-05-07T06:58:55;14.45;;;12.95;;
49678;SDS011;35570;48.218;16.326;2023-05-07T07:01:21;12.75;;;11.45;;
49678;SDS011;35570;48.218;16.326;2023-05-07T07:03:46;13.73;;;12.32;;
49678;SDS011;35570;48.218;16.326;2023-05-07T07:06:12;14.63;;;12.38;;
49678;SDS011;35570;48.218;16.326;2023-05-07T07:08:38;13.80;;;12.30;;
49678;SDS011;35570;48.218;16.326;2023-05-07T07:11:04;14.20;;;12.70;;
49678;SDS011;35570;48.218;16.326;2023-05-07T07:13:30;14.02;;;12.73;;
49678;SDS011;35570;48.218;16.326;2023-05-07T07:15:55;15.55;;;13.95;;
49678;SDS011;35570;48.218;16.326;2023-05-07T07:18:21;16.55;;;13.38;;
49678;SDS011;35570;48.218;16.326;2023-05-07T07:20:47;14.15;;;12.15;;
49678;SDS011;35570;48.218;16.326;2023-05-07T07:23:13;14.63;;;13.10;;
49678;SDS011;35570;48.218;16.326;2023-05-07T07:25:39;15.55;;;12.48;;
49678;SDS011;35570;48.218;16.326;2023-05-07T07:28:05;13.63;;;11.60;;
49678;SDS011;35570;48.218;16.326;2023-05-07T07:30:31;12.90;;;11.60;;
49678;SDS011;35570;48.218;16.326;2023-05-07T07:32:56;13.07;;;11.75;;
49678;SDS011;35570;48.218;16.326;2023-05-07T07:35:27;12.80;;;11.50;;
49678;SDS011;35570;48.218;16.326;2023-05-07T07:37:56;12.68;;;11.07;;
49678;SDS011;35570;48.218;16.326;2023-05-07T07:40:22;11.77;;;10.60;;
49678;SDS011;35570;48.218;16.326;2023-05-07T07:42:48;14.55;;;11.00;;
49678;SDS011;35570;48.218;16.326;2023-05-07T07:45:14;12.00;;;10.77;;
49678;SDS011;35570;48.218;16.326;2023-05-07T07:47:40;13.70;;;10.45;;
49678;SDS011;35570;48.218;16.326;2023-05-07T07:50:06;12.88;;;10.95;;
49678;SDS011;35570;48.218;16.326;2023-05-07T07:52:32;12.38;;;11.10;;
49678;SDS011;35570;48.218;16.326;2023-05-07T07:54:58;12.00;;;10.80;;
49678;SDS011;35570;48.218;16.326;2023-05-07T07:57:23;12.75;;;11.48;;
49678;SDS011;35570;48.218;16.326;2023-05-07T07:59:49;12.43;;;11.13;;
49678;SDS011;35570;48.218;16.326;2023-05-07T08:02:16;12.52;;;11.10;;
49678;SDS011;35570;48.218;16.326;2023-05-07T08:04:41;12.13;;;10.90;;
49678;SDS011;35570;48.218;16.326;2023-05-07T08:07:08;11.38;;;10.27;;
49678;SDS011;35570;48.218;16.326;2023-05-07T08:09:37;11.55;;;10.35;;
49678;SDS011;35570;48.218;16.326;2023-05-07T08:12:03;11.95;;;10.57;;
49678;SDS011;35570;48.218;16.326;2023-05-07T08:14:30;11.60;;;10.43;;
49678;SDS011;35570;48.218;16.326;2023-05-07T08:16:55;11.50;;;10.25;;
49678;SDS011;35570;48.218;16.326;2023-05-07T08:19:21;11.85;;;9.77;;
49678;SDS011;35570;48.218;16.326;2023-05-07T08:21:47;11.18;;;10.07;;
49678;SDS011;35570;48.218;16.326;2023-05-07T08:24:13;10.20;;;9.18;;
49678;SDS011;35570;48.218;16.326;2023-05-07T08:26:40;12.48;;;10.18;;
49678;SDS011;35570;48.218;16.326;2023-05-07T08:29:06;11.85;;;10.65;;
49678;SDS011;35570;48.218;16.326;2023-05-07T08:31:32;10.95;;;9.73;;
49678;SDS011;35570;48.218;16.326;2023-05-07T08:33:59;10.18;;;8.98;;
49678;SDS011;35570;48.218;16.326;2023-05-07T08:36:25;10.75;;;9.65;;
49678;SDS011;35570;48.218;16.326;2023-05-07T08:38:51;9.95;;;9.05;;
49678;SDS011;35570;48.218;16.326;2023-05-07T08:41:17;10.85;;;9.55;;
49678;SDS011;35570;48.218;16.326;2023-05-07T08:43:44;10.98;;;9.50;;
49678;SDS011;35570;48.218;16.326;2023-05-07T08:46:13;9.82;;;8.82;;
49678;SDS011;35570;48.218;16.326;2023-05-07T08:48:44;10.93;;;9.15;;
49678;SDS011;35570;48.218;16.326;2023-05-07T08:51:13;8.98;;;7.90;;
49678;SDS011;35570;48.218;16.326;2023-05-07T08:53:41;9.60;;;8.43;;
49678;SDS011;35570;48.218;16.326;2023-05-07T08:56:08;8.65;;;7.78;;
49678;SDS011;35570;48.218;16.326;2023-05-07T08:58:34;8.90;;;8.00;;
49678;SDS011;35570;48.218;16.326;2023-05-07T09:01:04;10.50;;;8.32;;
49678;SDS011;35570;48.218;16.326;2023-05-07T09:03:33;9.15;;;8.23;;
49678;SDS011;35570;48.218;16.326;2023-05-07T09:05:59;9.48;;;8.57;;
49678;SDS011;35570;48.218;16.326;2023-05-07T09:08:26;10.98;;;8.38;;
49678;SDS011;35570;48.218;16.326;2023-05-07T09:10:52;12.05;;;9.18;;
49678;SDS011;35570;48.218;16.326;2023-05-07T09:13:18;13.25;;;9.18;;
49678;SDS011;35570;48.218;16.326;2023-05-07T09:15:44;11.30;;;9.30;;
49678;SDS011;35570;48.218;16.326;2023-05-07T09:18:10;11.30;;;9.10;;
49678;SDS011;35570;48.218;16.326;2023-05-07T09:20:37;11.57;;;9.63;;
49678;SDS011;35570;48.218;16.326;2023-05-07T09:23:04;11.32;;;10.10;;
49678;SDS011;35570;48.218;16.326;2023-05-07T09:25:32;9.80;;;8.68;;
49678;SDS011;35570;48.218;16.326;2023-05-07T09:27:59;8.57;;;7.68;;
49678;SDS011;35570;48.218;16.326;2023-05-07T09:30:32;9.65;;;8.75;;
49678;SDS011;35570;48.218;16.326;2023-05-07T09:32:59;9.63;;;8.63;;
49678;SDS011;35570;48.218;16.326;2023-05-07T09:35:27;9.18;;;8.27;;
49678;SDS011;35570;48.218;16.326;2023-05-07T09:37:56;8.50;;;7.57;;
49678;SDS011;35570;48.218;16.326;2023-05-07T09:40:25;8.18;;;7.38;;
49678;SDS011;35570;48.218;16.326;2023-05-07T09:42:52;8.00;;;7.00;;
49678;SDS011;35570;48.218;16.326;2023-05-07T09:45:25;8.10;;;7.30;;
49678;SDS011;35570;48.218;16.326;2023-05-07T09:47:53;9.27;;;7.30;;
49678;SDS011;35570;48.218;16.326;2023-05-07T09:50:27;8.68;;;6.43;;
49678;SDS011;35570;48.218;16.326;2023-05-07T09:52:54;7.88;;;6.95;;
49678;SDS011;35570;48.218;16.326;2023-05-07T09:55:21;7.88;;;7.18;;
49678;SDS011;35570;48.218;16.326;2023-05-07T09:57:51;7.97;;;7.13;;
49678;SDS011;35570;48.218;16.326;2023-05-07T10:00:18;10.35;;;7.10;;
49678;SDS011;35570;48.218;16.326;2023-05-07T10:02:45;6.18;;;5.65;;
49678;SDS011;35570;48.218;16.326;2023-05-07T10:05:20;7.03;;;5.88;;
49678;SDS011;35570;48.218;16.326;2023-05-07T10:07:47;6.75;;;5.50;;
49678;SDS011;35570;48.218;16.326;2023-05-07T10:10:14;6.80;;;6.13;;
49678;SDS011;35570;48.218;16.326;2023-05-07T10:12:40;7.22;;;5.47;;
49678;SDS011;35570;48.218;16.326;2023-05-07T10:15:10;6.28;;;5.57;;
49678;SDS011;35570;48.218;16.326;2023-05-07T10:17:39;7.18;;;6.35;;
49678;SDS011;35570;48.218;16.326;2023-05-07T10:20:06;9.25;;;6.72;;
49678;SDS011;35570;48.218;16.326;2023-05-07T10:22:37;11.93;;;7.63;;
49678;SDS011;35570;48.218;16.326;2023-05-07T10:25:12;10.77;;;7.65;;
49678;SDS011;35570;48.218;16.326;2023-05-07T10:27:42;7.78;;;6.97;;
49678;SDS011;35570;48.218;16.326;2023-05-07T10:30:34;8.90;;;6.05;;
49678;SDS011;35570;48.218;16.326;2023-05-07T10:33:11;8.50;;;6.03;;
49678;SDS011;35570;48.218;16.326;2023-05-07T10:35:39;7.60;;;6.80;;
49678;SDS011;35570;48.218;16.326;2023-05-07T10:38:08;6.85;;;5.95;;
49678;SDS011;35570;48.218;16.326;2023-05-07T10:40:35;8.80;;;7.90;;
49678;SDS011;35570;48.218;16.326;2023-05-07T10:43:02;10.10;;;8.05;;
49678;SDS011;35570;48.218;16.326;2023-05-07T10:45:29;8.63;;;6.50;;
49678;SDS011;35570;48.218;16.326;2023-05-07T10:50:33;7.40;;;6.43;;
49678;SDS011;35570;48.218;16.326;2023-05-07T10:55:50;6.25;;;5.63;;
49678;SDS011;35570;48.218;16.326;2023-05-07T11:00:46;7.00;;;5.50;;
49678;SDS011;35570;48.218;16.326;2023-05-07T11:03:12;5.68;;;5.10;;
49678;SDS011;35570;48.218;16.326;2023-05-07T11:05:38;5.88;;;5.10;;
49678;SDS011;35570;48.218;16.326;2023-05-07T11:08:04;5.68;;;4.82;;
49678;SDS011;35570;48.218;16.326;2023-05-07T11:13:19;6.22;;;5.18;;
49678;SDS011;35570;48.218;16.326;2023-05-07T11:16:20;5.13;;;4.63;;
49678;SDS011;35570;48.218;16.326;2023-05-07T11:18:48;7.00;;;5.20;;
49678;SDS011;35570;48.218;16.326;2023-05-07T11:21:57;6.55;;;5.93;;
49678;SDS011;35570;48.218;16.326;2023-05-07T11:24:05;6.57;;;5.65;;
49678;SDS011;35570;48.218;16.326;2023-05-07T11:26:45;9.35;;;6.68;;
49678;SDS011;35570;48.218;16.326;2023-05-07T11:29:12;6.05;;;5.45;;
49678;SDS011;35570;48.218;16.326;2023-05-07T11:31:48;5.05;;;4.50;;
49678;SDS011;35570;48.218;16.326;2023-05-07T11:34:24;5.50;;;4.88;;
49678;SDS011;35570;48.218;16.326;2023-05-07T11:39:30;9.77;;;6.75;;
49678;SDS011;35570;48.218;16.326;2023-05-07T11:41:58;7.25;;;6.45;;
49678;SDS011;35570;48.218;16.326;2023-05-07T11:44:45;8.13;;;6.13;;
49678;SDS011;35570;48.218;16.326;2023-05-07T11:47:11;8.57;;;6.85;;
49678;SDS011;35570;48.218;16.326;2023-05-07T11:49:43;8.50;;;7.20;;
49678;SDS011;35570;48.218;16.326;2023-05-07T11:52:09;8.30;;;6.00;;
49678;SDS011;35570;48.218;16.326;2023-05-07T11:54:35;5.28;;;4.78;;
49678;SDS011;35570;48.218;16.326;2023-05-07T11:57:02;7.28;;;4.78;;
49678;SDS011;35570;48.218;16.326;2023-05-07T11:59:27;7.18;;;4.88;;
49678;SDS011;35570;48.218;16.326;2023-05-07T12:01:56;5.05;;;4.53;;
49678;SDS011;35570;48.218;16.326;2023-05-07T12:04:22;5.70;;;5.10;;
49678;SDS011;35570;48.218;16.326;2023-05-07T12:06:48;5.45;;;4.80;;
49678;SDS011;35570;48.218;16.326;2023-05-07T12:09:15;7.32;;;6.63;;
49678;SDS011;35570;48.218;16.326;2023-05-07T12:11:41;9.98;;;7.25;;
49678;SDS011;35570;48.218;16.326;2023-05-07T12:14:10;7.55;;;6.25;;
49678;SDS011;35570;48.218;16.326;2023-05-07T12:16:36;5.78;;;5.18;;
49678;SDS011;35570;48.218;16.326;2023-05-07T12:19:04;5.68;;;5.07;;
49678;SDS011;35570;48.218;16.326;2023-05-07T12:21:31;7.13;;;6.18;;
49678;SDS011;35570;48.218;16.326;2023-05-07T12:23:57;8.80;;;5.50;;
49678;SDS011;35570;48.218;16.326;2023-05-07T12:26:22;7.85;;;6.13;;
49678;SDS011;35570;48.218;16.326;2023-05-07T12:28:49;6.65;;;4.88;;
49678;SDS011;35570;48.218;16.326;2023-05-07T12:31:15;9.75;;;7.00;;
49678;SDS011;35570;48.218;16.326;2023-05-07T12:33:41;8.95;;;7.43;;
49678;SDS011;35570;48.218;16.326;2023-05-07T12:36:07;11.18;;;7.18;;
49678;SDS011;35570;48.218;16.326;2023-05-07T12:38:34;7.63;;;5.53;;
49678;SDS011;35570;48.218;16.326;2023-05-07T12:41:01;6.70;;;5.50;;
49678;SDS011;35570;48.218;16.326;2023-05-07T12:43:28;7.32;;;5.90;;
49678;SDS011;35570;48.218;16.326;2023-05-07T12:45:55;8.07;;;5.90;;
49678;SDS011;35570;48.218;16.326;2023-05-07T12:48:31;6.35;;;5.18;;
49678;SDS011;35570;48.218;16.326;2023-05-07T12:50:57;6.47;;;5.57;;
49678;SDS011;35570;48.218;16.326;2023-05-07T12:53:25;7.60;;;6.80;;
49678;SDS011;35570;48.218;16.326;2023-05-07T12:55:53;6.35;;;5.72;;
49678;SDS011;35570;48.218;16.326;2023-05-07T12:58:26;5.95;;;4.63;;
49678;SDS011;35570;48.218;16.326;2023-05-07T13:00:54;6.18;;;5.07;;
49678;SDS011;35570;48.218;16.326;2023-05-07T13:03:24;7.63;;;6.75;;
49678;SDS011;35570;48.218;16.326;2023-05-07T13:05:51;7.72;;;5.93;;
49678;SDS011;35570;48.218;16.326;2023-05-07T13:08:24;6.18;;;4.90;;
49678;SDS011;35570;48.218;16.326;2023-05-07T13:10:51;5.25;;;4.75;;
49678;SDS011;35570;48.218;16.326;2023-05-07T13:13:18;4.28;;;3.85;;
49678;SDS011;35570;48.218;16.326;2023-05-07T13:15:46;4.72;;;4.30;;
49678;SDS011;35570;48.218;16.326;2023-05-07T13:18:12;3.65;;;3.35;;
49678;SDS011;35570;48.218;16.326;2023-05-07T13:20:38;6.15;;;3.88;;
49678;SDS011;35570;48.218;16.326;2023-05-07T13:23:03;3.95;;;3.55;;
49678;SDS011;35570;48.218;16.326;2023-05-07T13:25:29;3.70;;;3.40;;
49678;SDS011;35570;48.218;16.326;2023-05-07T13:27:58;4.50;;;3.55;;
49678;SDS011;35570;48.218;16.326;2023-05-07T13:30:24;4.35;;;3.92;;
49678;SDS011;35570;48.218;16.326;2023-05-07T13:32:50;4.70;;;3.50;;
49678;SDS011;35570;48.218;16.326;2023-05-07T13:35:17;5.95;;;4.10;;
49678;SDS011;35570;48.218;16.326;2023-05-07T13:37:43;5.03;;;4.32;;
49678;SDS011;35570;48.218;16.326;2023-05-07T13:40:08;4.82;;;4.43;;
49678;SDS011;35570;48.218;16.326;2023-05-07T13:42:34;6.45;;;4.97;;
49678;SDS011;35570;48.218;16.326;2023-05-07T13:45:00;8.02;;;4.50;;
49678;SDS011;35570;48.218;16.326;2023-05-07T13:47:25;4.50;;;4.07;;
49678;SDS011;35570;48.218;16.326;2023-05-07T13:49:51;3.95;;;3.10;;
49678;SDS011;35570;48.218;16.326;2023-05-07T13:52:17;3.47;;;3.17;;
49678;SDS011;35570;48.218;16.326;2023-05-07T13:54:43;4.20;;;3.80;;
49678;SDS011;35570;48.218;16.326;2023-05-07T13:57:08;3.40;;;3.10;;
49678;SDS011;35570;48.218;16.326;2023-05-07T13:59:34;3.53;;;2.95;;
49678;SDS011;35570;48.218;16.326;2023-05-07T14:01:59;6.28;;;3.17;;
49678;SDS011;35570;48.218;16.326;2023-05-07T14:04:25;4.38;;;3.03;;
49678;SDS011;35570;48.218;16.326;2023-05-07T14:06:51;5.45;;;3.45;;
49678;SDS011;35570;48.218;16.326;2023-05-07T14:09:16;5.72;;;3.95;;
49678;SDS011;35570;48.218;16.326;2023-05-07T14:11:42;4.70;;;3.80;;
49678;SDS011;35570;48.218;16.326;2023-05-07T14:14:08;3.95;;;3.08;;
49678;SDS011;35570;48.218;16.326;2023-05-07T14:16:36;4.90;;;3.28;;
49678;SDS011;35570;48.218;16.326;2023-05-07T14:19:02;5.07;;;4.35;;
49678;SDS011;35570;48.218;16.326;2023-05-07T14:21:28;3.60;;;3.30;;
49678;SDS011;35570;48.218;16.326;2023-05-07T14:23:53;3.80;;;3.35;;
49678;SDS011;35570;48.218;16.326;2023-05-07T14:26:21;5.22;;;3.92;;
49678;SDS011;35570;48.218;16.326;2023-05-07T14:28:48;3.20;;;2.90;;
49678;SDS011;35570;48.218;16.326;2023-05-07T14:31:14;3.90;;;3.47;;
49678;SDS011;35570;48.218;16.326;2023-05-07T14:33:39;3.75;;;3.30;;
49678;SDS011;35570;48.218;16.326;2023-05-07T14:36:05;3.72;;;3.25;;
49678;SDS011;35570;48.218;16.326;2023-05-07T14:38:31;5.10;;;3.20;;
49678;SDS011;35570;48.218;16.326;2023-05-07T14:40:58;4.72;;;3.13;;
49678;SDS011;35570;48.218;16.326;2023-05-07T14:43:23;3.75;;;3.22;;
49678;SDS011;35570;48.218;16.326;2023-05-07T14:45:49;5.95;;;4.50;;
49678;SDS011;35570;48.218;16.326;2023-05-07T14:48:15;5.30;;;4.10;;
49678;SDS011;35570;48.218;16.326;2023-05-07T14:50:41;7.20;;;5.07;;
49678;SDS011;35570;48.218;16.326;2023-05-07T14:53:07;4.80;;;4.07;;
49678;SDS011;35570;48.218;16.326;2023-05-07T14:55:33;3.95;;;3.55;;
49678;SDS011;35570;48.218;16.326;2023-05-07T14:57:59;4.10;;;3.80;;
49678;SDS011;35570;48.218;16.326;2023-05-07T15:00:25;3.40;;;3.00;;
49678;SDS011;35570;48.218;16.326;2023-05-07T15:02:51;3.25;;;2.95;;
49678;SDS011;35570;48.218;16.326;2023-05-07T15:05:16;3.72;;;2.92;;
49678;SDS011;35570;48.218;16.326;2023-05-07T15:07:44;3.47;;;2.97;;
49678;SDS011;35570;48.218;16.326;2023-05-07T15:10:10;4.72;;;3.22;;
49678;SDS011;35570;48.218;16.326;2023-05-07T15:12:35;3.85;;;3.45;;